Time;durP1;ratioP1;P1;durP2;ratioP2;P2;SDS_P1;SDS_P2;PMS_P1;PMS_P2;Temp;Humidity;BMP_temperature;BMP_pressure;BME280_temperature;BME280_humidity;BME280_pressure;Samples;Min_cycle;Max_cycle;Signal;HPM_P1;HPM_P2
2023/07/07 00:01:34;;;;;;;1.13;0.50;;;14.00;99.90;;;;;;4994177;28;20246;-74
2023/07/07 00:04:06;;;;;;;1.05;0.52;;;14.20;99.90;;;;;;4993041;28;20567;-74
2023/07/07 00:06:37;;;;;;;1.00;0.50;;;14.30;99.90;;;;;;4994024;28;20541;-74
2023/07/07 00:09:08;;;;;;;0.40;0.40;;;14.40;99.90;;;;;;4994133;28;20192;-74
2023/07/07 00:11:39;;;;;;;1.30;0.60;;;14.40;99.90;;;;;;4993865;28;20225;-74
2023/07/07 00:14:10;;;;;;;0.57;0.43;;;14.60;99.90;;;;;;4993965;28;20200;-74
2023/07/07 00:16:43;;;;;;;0.32;0.32;;;14.70;99.90;;;;;;4989334;28;20568;-74
2023/07/07 00:19:15;;;;;;;0.40;0.40;;;14.80;99.90;;;;;;4993951;28;20196;-74
2023/07/07 00:21:52;;;;;;;1.23;0.63;;;14.90;99.90;;;;;;4994036;28;20192;-74
2023/07/07 00:24:23;;;;;;;1.25;0.50;;;14.90;99.90;;;;;;4992775;28;20207;-75
2023/07/07 00:26:55;;;;;;;0.52;0.40;;;15.10;99.90;;;;;;4993838;28;20266;-75
2023/07/07 00:29:26;;;;;;;0.70;0.47;;;15.10;99.90;;;;;;4993768;28;20228;-74
2023/07/07 00:32:00;;;;;;;1.30;0.40;;;15.20;99.90;;;;;;4992591;28;20199;-74
2023/07/07 00:34:31;;;;;;;1.25;0.40;;;15.30;99.90;;;;;;4992928;28;20202;-74
2023/07/07 00:37:02;;;;;;;0.60;0.45;;;15.40;99.90;;;;;;4993844;28;20192;-74
2023/07/07 00:39:33;;;;;;;0.82;0.45;;;15.50;99.90;;;;;;4991490;28;20207;-75
2023/07/07 00:42:04;;;;;;;2.10;0.43;;;15.60;99.90;;;;;;4993807;28;20195;-75
2023/07/07 00:45:12;;;;;;;1.00;0.60;;;15.70;99.90;;;;;;4993723;28;20278;-75
2023/07/07 00:47:48;;;;;;;0.63;0.50;;;15.80;99.90;;;;;;4991327;28;20210;-75
2023/07/07 00:50:22;;;;;;;3.92;0.88;;;15.80;99.90;;;;;;4993180;28;20227;-74
2023/07/07 00:52:53;;;;;;;0.88;0.70;;;15.80;99.90;;;;;;4994912;28;20195;-75
2023/07/07 00:55:29;;;;;;;1.42;0.63;;;15.90;99.90;;;;;;4997355;28;20238;-76
2023/07/07 00:58:06;;;;;;;1.10;0.73;;;16.00;99.90;;;;;;4997669;28;20191;-75
2023/07/07 01:00:38;;;;;;;0.70;0.60;;;16.00;99.90;;;;;;4997405;28;20233;-75
2023/07/07 01:03:15;;;;;;;0.50;0.50;;;16.00;99.90;;;;;;4997563;28;20663;-74
2023/07/07 01:05:47;;;;;;;2.30;0.70;;;16.00;99.90;;;;;;4997479;28;20242;-74
2023/07/07 01:08:19;;;;;;;1.52;0.68;;;16.10;99.90;;;;;;4996833;28;20208;-74
2023/07/07 01:10:50;;;;;;;0.85;0.60;;;16.20;99.90;;;;;;4997335;28;20585;-74
2023/07/07 01:13:21;;;;;;;3.03;0.80;;;16.30;99.90;;;;;;4996854;28;20210;-74
2023/07/07 01:16:06;;;;;;;0.75;0.50;;;16.40;99.90;;;;;;4996406;28;20525;-75
2023/07/07 01:18:44;;;;;;;0.90;0.45;;;16.40;99.90;;;;;;4996284;28;20188;-75
2023/07/07 01:21:29;;;;;;;0.55;0.40;;;16.40;99.90;;;;;;4994855;28;20203;-75
2023/07/07 01:24:41;;;;;;;1.10;0.50;;;16.50;99.90;;;;;;4995502;28;20631;-75
2023/07/07 01:27:46;;;;;;;0.73;0.43;;;16.60;99.90;;;;;;4971975;28;20208;-74
2023/07/07 01:30:31;;;;;;;0.75;0.50;;;16.60;99.90;;;;;;4973470;28;20223;-74
2023/07/07 01:33:06;;;;;;;0.80;0.60;;;16.60;99.90;;;;;;4995341;28;20191;-75
2023/07/07 01:35:37;;;;;;;1.98;0.65;;;16.70;99.90;;;;;;4988543;28;20203;-76
2023/07/07 01:38:29;;;;;;;1.00;0.50;;;16.80;99.90;;;;;;4995292;28;20191;-74
2023/07/07 01:41:11;;;;;;;0.93;0.60;;;16.80;99.90;;;;;;4996913;28;20199;-74
2023/07/07 01:43:48;;;;;;;1.27;0.60;;;17.00;99.90;;;;;;4996695;28;20282;-75
2023/07/07 01:46:30;;;;;;;2.38;0.73;;;17.00;99.90;;;;;;4995869;28;20206;-74
2023/07/07 01:49:09;;;;;;;0.93;0.40;;;17.10;99.90;;;;;;4977186;28;20200;-74
2023/07/07 01:51:45;;;;;;;2.30;0.52;;;17.20;99.90;;;;;;4984881;28;20211;-74
2023/07/07 01:54:18;;;;;;;0.30;0.20;;;17.20;99.90;;;;;;4995404;28;20683;-74
2023/07/07 01:56:51;;;;;;;0.73;0.30;;;17.30;99.90;;;;;;4977008;28;20675;-75
2023/07/07 01:59:23;;;;;;;1.38;0.30;;;17.30;99.90;;;;;;4993746;28;20210;-73
2023/07/07 02:01:57;;;;;;;0.43;0.20;;;17.30;99.90;;;;;;4996033;28;20247;-75
2023/07/07 02:04:28;;;;;;;0.38;0.30;;;17.30;99.90;;;;;;4995674;28;20195;-74
2023/07/07 02:06:59;;;;;;;0.30;0.30;;;17.20;99.90;;;;;;4993654;28;20204;-75
2023/07/07 02:09:30;;;;;;;1.10;0.40;;;17.20;99.90;;;;;;4994585;28;20203;-75
2023/07/07 02:12:01;;;;;;;1.02;0.40;;;17.30;99.90;;;;;;4996185;28;20219;-75
2023/07/07 02:14:33;;;;;;;0.70;0.20;;;17.40;99.90;;;;;;4995287;28;20207;-74
2023/07/07 02:17:06;;;;;;;0.30;0.20;;;17.40;99.90;;;;;;4995203;28;20206;-76
2023/07/07 02:19:37;;;;;;;1.85;0.20;;;17.50;99.90;;;;;;4996265;28;20196;-74
2023/07/07 02:22:08;;;;;;;0.32;0.20;;;17.50;99.90;;;;;;4994697;28;20563;-75
2023/07/07 02:24:39;;;;;;;0.20;0.20;;;17.50;99.90;;;;;;4995405;28;20284;-75
2023/07/07 02:27:11;;;;;;;0.50;0.28;;;17.60;99.90;;;;;;4994812;28;20191;-74
2023/07/07 02:29:42;;;;;;;0.30;0.20;;;17.70;99.90;;;;;;4994848;28;20621;-75
2023/07/07 02:32:15;;;;;;;0.47;0.30;;;17.80;99.90;;;;;;4995849;28;20219;-75
2023/07/07 02:34:47;;;;;;;0.30;0.30;;;17.70;99.90;;;;;;4995311;28;20200;-76
2023/07/07 02:37:19;;;;;;;1.10;0.30;;;17.70;99.90;;;;;;4994470;28;20338;-75
2023/07/07 02:39:50;;;;;;;0.75;0.30;;;17.80;99.90;;;;;;4995835;28;20192;-74
2023/07/07 02:42:21;;;;;;;0.45;0.30;;;17.80;99.90;;;;;;4995944;28;20551;-74
2023/07/07 02:44:52;;;;;;;1.30;0.30;;;17.90;99.90;;;;;;4995613;28;20196;-75
2023/07/07 02:47:26;;;;;;;2.65;0.30;;;17.90;99.90;;;;;;4995545;28;20278;-75
2023/07/07 02:49:57;;;;;;;0.10;0.10;;;17.90;99.90;;;;;;4995300;28;20203;-75
2023/07/07 02:52:29;;;;;;;0.40;0.22;;;17.90;99.90;;;;;;4993491;28;20226;-75
2023/07/07 02:55:00;;;;;;;0.70;0.38;;;17.90;99.90;;;;;;4992891;28;20231;-75
2023/07/07 02:57:31;;;;;;;1.70;0.30;;;17.90;99.90;;;;;;4995445;28;20192;-75
2023/07/07 03:00:05;;;;;;;1.85;0.30;;;17.90;99.90;;;;;;4995452;28;20232;-74
2023/07/07 03:02:38;;;;;;;0.50;0.30;;;18.00;99.90;;;;;;4992724;28;20198;-76
2023/07/07 03:05:10;;;;;;;1.17;0.22;;;18.00;99.90;;;;;;4994949;28;20559;-74
2023/07/07 03:07:41;;;;;;;0.35;0.20;;;18.10;99.90;;;;;;4994488;28;20199;-75
2023/07/07 03:10:13;;;;;;;1.13;0.40;;;18.10;99.90;;;;;;4995911;28;20204;-74
2023/07/07 03:12:44;;;;;;;0.63;0.52;;;18.10;99.90;;;;;;4994713;28;20251;-74
2023/07/07 03:15:15;;;;;;;2.03;0.40;;;18.10;99.90;;;;;;4994648;28;20290;-75
2023/07/07 03:17:49;;;;;;;0.30;0.30;;;18.20;99.90;;;;;;4994912;28;20202;-75
2023/07/07 03:20:20;;;;;;;0.30;0.22;;;18.20;99.90;;;;;;4995047;28;20553;-75
2023/07/07 03:22:51;;;;;;;1.13;0.30;;;18.20;99.90;;;;;;4991479;28;20204;-74
2023/07/07 03:25:23;;;;;;;0.85;0.30;;;18.30;99.90;;;;;;4993427;28;20202;-75
2023/07/07 03:27:54;;;;;;;0.82;0.38;;;18.30;99.90;;;;;;4975705;28;20196;-75
2023/07/07 03:30:25;;;;;;;0.20;0.20;;;18.40;99.90;;;;;;4976066;28;20196;-75
2023/07/07 03:32:58;;;;;;;0.30;0.20;;;18.40;99.90;;;;;;4991807;28;20199;-75
2023/07/07 03:35:29;;;;;;;0.20;0.20;;;18.50;99.90;;;;;;4994514;28;20222;-75
2023/07/07 03:38:00;;;;;;;0.20;0.20;;;18.50;99.90;;;;;;4994639;28;20203;-74
2023/07/07 03:40:31;;;;;;;1.25;0.40;;;18.40;99.90;;;;;;4994777;28;20195;-75
2023/07/07 03:43:02;;;;;;;0.28;0.20;;;18.40;99.90;;;;;;4994571;28;20199;-75
2023/07/07 03:45:36;;;;;;;0.95;0.30;;;18.40;99.90;;;;;;4993420;28;20196;-75
2023/07/07 03:48:09;;;;;;;1.58;0.30;;;18.40;99.90;;;;;;4974858;28;20192;-75
2023/07/07 03:50:40;;;;;;;1.85;0.20;;;18.50;99.90;;;;;;4992965;28;20206;-75
2023/07/07 03:53:11;;;;;;;0.25;0.25;;;18.50;99.90;;;;;;4994951;28;20199;-75
2023/07/07 03:55:42;;;;;;;0.30;0.30;;;18.50;99.90;;;;;;4994165;28;20220;-75
2023/07/07 03:58:14;;;;;;;1.75;0.30;;;18.50;99.90;;;;;;4991079;28;20573;-76
2023/07/07 04:00:45;;;;;;;0.30;0.20;;;18.50;99.90;;;;;;4993928;28;20703;-75
2023/07/07 04:03:19;;;;;;;0.20;0.20;;;18.50;99.90;;;;;;4993892;28;20195;-75
2023/07/07 04:05:52;;;;;;;0.10;0.10;;;18.50;99.90;;;;;;4993453;28;20319;-75
2023/07/07 04:08:24;;;;;;;0.13;0.10;;;18.40;99.90;;;;;;4994064;28;20196;-75
2023/07/07 04:11:02;;;;;;;1.95;0.43;;;18.50;99.90;;;;;;4993963;28;20222;-75
2023/07/07 04:13:34;;;;;;;0.20;0.20;;;18.50;99.90;;;;;;4993394;28;20206;-75
2023/07/07 04:16:07;;;;;;;0.55;0.30;;;18.50;99.90;;;;;;4994090;28;20199;-77
2023/07/07 04:18:40;;;;;;;2.80;0.30;;;18.60;99.90;;;;;;4994055;28;20271;-77
2023/07/07 04:21:13;;;;;;;0.10;0.10;;;18.60;99.90;;;;;;4993374;28;20203;-75
2023/07/07 04:23:45;;;;;;;0.28;0.20;;;18.60;99.90;;;;;;4993933;28;20192;-75
2023/07/07 04:26:16;;;;;;;0.95;0.20;;;18.40;99.90;;;;;;4991757;28;20199;-75
2023/07/07 04:28:48;;;;;;;0.30;0.30;;;18.50;99.90;;;;;;4992838;28;20207;-75
2023/07/07 04:31:20;;;;;;;1.25;0.20;;;18.50;99.90;;;;;;4993448;28;20286;-75
2023/07/07 04:33:54;;;;;;;0.20;0.20;;;18.50;99.90;;;;;;4993728;28;20278;-78
2023/07/07 04:36:25;;;;;;;0.15;0.13;;;18.60;99.90;;;;;;4991502;28;20207;-75
2023/07/07 04:38:56;;;;;;;0.20;0.20;;;18.50;99.90;;;;;;4992678;28;20206;-75
2023/07/07 04:41:28;;;;;;;0.10;0.10;;;18.60;99.90;;;;;;4991729;28;20258;-74
2023/07/07 04:44:01;;;;;;;0.47;0.15;;;18.60;99.90;;;;;;4994105;28;20192;-73
2023/07/07 04:46:34;;;;;;;2.25;0.22;;;18.60;99.90;;;;;;4993521;28;20192;-75
2023/07/07 04:49:08;;;;;;;0.20;0.20;;;18.50;99.90;;;;;;4993795;28;20242;-76
2023/07/07 04:51:41;;;;;;;0.20;0.20;;;18.50;99.90;;;;;;4993664;28;20215;-75
2023/07/07 04:54:15;;;;;;;0.20;0.20;;;18.40;99.90;;;;;;4992852;28;20227;-76
2023/07/07 04:56:46;;;;;;;0.20;0.20;;;18.40;99.90;;;;;;4993662;28;20205;-75
2023/07/07 04:59:18;;;;;;;0.30;0.20;;;18.50;99.90;;;;;;4993662;28;20187;-76
2023/07/07 05:01:49;;;;;;;0.38;0.30;;;18.50;99.90;;;;;;4993305;28;20231;-77
2023/07/07 05:04:22;;;;;;;0.65;0.40;;;18.50;99.90;;;;;;4993582;28;20207;-76
2023/07/07 05:06:53;;;;;;;1.75;0.30;;;18.40;99.90;;;;;;4991305;28;20640;-76
2023/07/07 05:09:24;;;;;;;0.17;0.17;;;18.40;99.90;;;;;;4993516;28;20199;-76
2023/07/07 05:11:55;;;;;;;0.20;0.20;;;18.40;99.90;;;;;;4993506;28;20226;-75
2023/07/07 05:14:26;;;;;;;0.40;0.38;;;18.30;99.90;;;;;;4992105;28;20222;-75
2023/07/07 05:16:57;;;;;;;0.30;0.10;;;18.30;99.90;;;;;;4993521;28;20246;-75
2023/07/07 05:19:30;;;;;;;1.75;0.40;;;18.30;99.90;;;;;;4993443;28;20191;-76
2023/07/07 05:22:01;;;;;;;0.28;0.20;;;18.40;99.90;;;;;;4993404;28;20630;-76
2023/07/07 05:24:33;;;;;;;0.28;0.20;;;18.40;99.90;;;;;;4991977;28;20199;-76
2023/07/07 05:27:04;;;;;;;0.73;0.20;;;18.30;99.90;;;;;;4991287;28;20196;-75
2023/07/07 05:29:35;;;;;;;1.08;0.43;;;18.30;99.90;;;;;;4988692;28;20206;-75
2023/07/07 05:32:07;;;;;;;0.40;0.30;;;18.20;99.90;;;;;;4993229;28;20707;-76
2023/07/07 05:34:40;;;;;;;0.30;0.30;;;18.30;99.90;;;;;;4992213;28;20199;-75
2023/07/07 05:37:11;;;;;;;0.13;0.13;;;18.30;99.90;;;;;;4994379;28;20198;-75
2023/07/07 05:39:42;;;;;;;0.10;0.10;;;18.20;99.90;;;;;;4996869;28;20199;-75
2023/07/07 05:42:13;;;;;;;1.38;0.20;;;18.10;99.90;;;;;;4995258;28;20196;-75
2023/07/07 05:44:44;;;;;;;0.20;0.20;;;18.10;99.90;;;;;;4995661;28;20207;-76
2023/07/07 05:47:15;;;;;;;0.20;0.20;;;18.10;99.90;;;;;;4996841;28;20196;-75
2023/07/07 05:49:48;;;;;;;0.30;0.30;;;18.00;99.90;;;;;;4996779;28;20204;-75
2023/07/07 05:52:19;;;;;;;2.10;0.20;;;18.00;99.90;;;;;;4996599;28;20687;-75
2023/07/07 05:54:51;;;;;;;1.27;0.57;;;18.00;99.90;;;;;;4996459;28;20223;-75
2023/07/07 05:57:22;;;;;;;0.30;0.28;;;17.90;99.90;;;;;;4995185;28;20227;-74
2023/07/07 05:59:54;;;;;;;0.50;0.30;;;17.90;99.90;;;;;;4996206;28;20232;-75
2023/07/07 06:02:25;;;;;;;0.50;0.50;;;17.90;99.90;;;;;;4996372;28;20208;-75
2023/07/07 06:04:58;;;;;;;1.85;0.50;;;17.90;99.90;;;;;;4995270;28;20204;-76
2023/07/07 06:07:34;;;;;;;0.80;0.45;;;17.80;99.90;;;;;;4995890;28;20557;-75
2023/07/07 06:10:05;;;;;;;1.40;0.30;;;17.80;99.90;;;;;;4988034;28;20199;-76
2023/07/07 06:12:36;;;;;;;0.40;0.40;;;17.80;99.90;;;;;;4995941;28;20234;-75
2023/07/07 06:15:08;;;;;;;0.40;0.32;;;17.80;99.90;;;;;;4995319;28;20254;-76
2023/07/07 06:17:40;;;;;;;0.35;0.20;;;17.80;99.90;;;;;;4994897;28;20277;-75
2023/07/07 06:20:14;;;;;;;0.43;0.28;;;17.70;99.90;;;;;;4996541;28;20191;-75
2023/07/07 06:22:45;;;;;;;0.40;0.30;;;17.70;99.90;;;;;;4996173;28;20639;-76
2023/07/07 06:25:16;;;;;;;0.30;0.22;;;17.60;99.90;;;;;;4976611;28;20192;-75
2023/07/07 06:27:47;;;;;;;0.98;0.40;;;17.50;99.90;;;;;;4976978;28;20225;-74
2023/07/07 06:30:18;;;;;;;0.40;0.40;;;17.40;99.90;;;;;;4993180;28;20195;-74
2023/07/07 06:32:49;;;;;;;0.85;0.35;;;17.40;99.90;;;;;;4995947;28;20223;-74
2023/07/07 06:35:22;;;;;;;0.40;0.40;;;17.30;99.90;;;;;;4995976;28;20204;-75
2023/07/07 06:37:53;;;;;;;0.60;0.40;;;17.20;99.90;;;;;;4995967;28;20195;-73
2023/07/07 06:40:25;;;;;;;1.27;0.40;;;17.20;99.90;;;;;;4995886;28;20218;-73
2023/07/07 06:42:58;;;;;;;1.15;0.40;;;17.10;99.90;;;;;;4994753;28;20204;-75
2023/07/07 06:45:29;;;;;;;0.30;0.30;;;17.10;99.90;;;;;;4994930;28;20200;-75
2023/07/07 06:48:02;;;;;;;0.52;0.30;;;17.00;99.90;;;;;;4996022;28;20282;-75
2023/07/07 06:50:40;;;;;;;0.65;0.40;;;16.90;99.90;;;;;;4994617;28;20224;-74
2023/07/07 06:53:11;;;;;;;1.52;0.45;;;16.80;99.90;;;;;;4976358;28;20230;-74
2023/07/07 06:55:43;;;;;;;0.40;0.40;;;16.70;99.90;;;;;;4977103;28;20279;-75
2023/07/07 06:58:14;;;;;;;1.55;0.30;;;16.70;99.90;;;;;;4993526;28;20199;-75
2023/07/07 07:00:47;;;;;;;0.68;0.30;;;16.60;99.90;;;;;;4991547;28;20232;-75
2023/07/07 07:03:18;;;;;;;0.30;0.30;;;16.50;99.90;;;;;;4978232;28;20203;-74
2023/07/07 07:05:51;;;;;;;0.63;0.47;;;16.40;99.90;;;;;;4987076;28;20211;-75
2023/07/07 07:08:22;;;;;;;0.40;0.40;;;16.40;99.90;;;;;;4992379;28;20562;-75
2023/07/07 07:10:53;;;;;;;0.35;0.32;;;16.30;99.90;;;;;;4990362;28;20288;-75
2023/07/07 07:13:24;;;;;;;1.42;0.40;;;16.30;99.90;;;;;;4986538;28;20226;-76
2023/07/07 07:15:56;;;;;;;0.60;0.30;;;16.20;99.90;;;;;;4991227;28;20204;-75
2023/07/07 07:18:27;;;;;;;0.45;0.45;;;16.20;99.90;;;;;;4993290;28;20206;-74
2023/07/07 07:21:00;;;;;;;1.52;0.40;;;16.10;99.90;;;;;;4991812;28;20516;-75
2023/07/07 07:23:31;;;;;;;0.30;0.30;;;16.10;99.90;;;;;;4992505;28;20210;-75
2023/07/07 07:26:02;;;;;;;0.52;0.52;;;16.00;99.90;;;;;;4993501;28;20206;-75
2023/07/07 07:28:33;;;;;;;1.67;0.60;;;15.90;99.90;;;;;;4989011;28;20200;-75
2023/07/07 07:31:04;;;;;;;1.10;0.60;;;15.90;99.90;;;;;;4992883;28;20207;-75
2023/07/07 07:33:35;;;;;;;1.58;0.60;;;15.80;99.90;;;;;;4992523;28;20948;-75
2023/07/07 07:36:08;;;;;;;0.75;0.60;;;15.70;99.90;;;;;;4992134;28;20219;-74
2023/07/07 07:38:39;;;;;;;0.88;0.60;;;15.70;99.90;;;;;;4991774;28;20560;-74
2023/07/07 07:41:10;;;;;;;1.02;0.43;;;15.60;99.90;;;;;;4991434;28;20199;-74
2023/07/07 07:43:42;;;;;;;0.65;0.50;;;15.50;99.90;;;;;;4991856;28;20207;-76
2023/07/07 07:46:13;;;;;;;1.55;0.50;;;15.50;99.90;;;;;;4988502;28;20199;-76
2023/07/07 07:48:44;;;;;;;0.68;0.50;;;15.40;99.90;;;;;;4986783;28;20207;-76
2023/07/07 07:51:17;;;;;;;1.10;0.60;;;15.40;99.90;;;;;;4992266;28;20685;-74
2023/07/07 07:53:48;;;;;;;1.25;0.73;;;15.40;99.90;;;;;;4993931;28;20215;-74
2023/07/07 07:56:19;;;;;;;0.60;0.50;;;15.30;99.90;;;;;;4991744;28;20204;-75
2023/07/07 07:58:50;;;;;;;0.50;0.50;;;15.10;99.90;;;;;;4993290;28;20195;-74
2023/07/07 08:01:21;;;;;;;1.15;0.50;;;15.20;99.90;;;;;;4990398;28;20242;-74
2023/07/07 08:03:52;;;;;;;2.53;0.65;;;15.30;99.90;;;;;;4993459;28;20201;-75
2023/07/07 08:06:26;;;;;;;1.17;0.40;;;15.20;99.90;;;;;;4992066;28;20203;-75
2023/07/07 08:08:57;;;;;;;0.95;0.57;;;15.20;99.90;;;;;;4989271;28;20573;-76
2023/07/07 08:11:46;;;;;;;0.77;0.50;;;15.10;99.90;;;;;;4990839;28;20195;-75
2023/07/07 08:14:18;;;;;;;1.00;0.60;;;15.10;99.90;;;;;;4990601;28;20208;-75
2023/07/07 08:16:50;;;;;;;0.70;0.57;;;15.00;99.90;;;;;;4994190;28;20199;-75
2023/07/07 08:19:21;;;;;;;1.75;0.77;;;14.90;99.90;;;;;;4989423;28;20196;-75
2023/07/07 08:21:54;;;;;;;1.58;0.50;;;15.00;99.90;;;;;;4992827;28;20648;-75
2023/07/07 08:24:25;;;;;;;1.27;0.57;;;15.00;99.90;;;;;;4989485;28;20200;-75
2023/07/07 08:26:56;;;;;;;0.50;0.40;;;15.00;99.90;;;;;;4987837;28;20710;-75
2023/07/07 08:29:27;;;;;;;0.57;0.50;;;15.00;99.90;;;;;;4988969;28;20204;-76
2023/07/07 08:31:58;;;;;;;0.40;0.40;;;14.90;99.90;;;;;;4992221;28;20589;-75
2023/07/07 08:34:30;;;;;;;1.55;0.40;;;14.90;99.90;;;;;;4992094;28;20584;-76
2023/07/07 08:37:03;;;;;;;0.20;0.20;;;14.90;99.90;;;;;;4991784;28;20218;-73
2023/07/07 08:39:34;;;;;;;0.38;0.38;;;14.90;99.90;;;;;;4990735;28;20199;-75
2023/07/07 08:42:08;;;;;;;0.35;0.30;;;14.90;99.90;;;;;;4988599;28;20291;-75
2023/07/07 08:44:40;;;;;;;1.00;0.50;;;14.90;99.90;;;;;;4985367;28;20203;-77
2023/07/07 08:47:18;;;;;;;0.50;0.40;;;14.90;99.90;;;;;;4986459;28;20207;-76
2023/07/07 08:49:56;;;;;;;0.80;0.47;;;14.80;99.90;;;;;;4991124;28;20209;-75
2023/07/07 08:52:40;;;;;;;0.60;0.50;;;14.70;99.90;;;;;;4989642;28;20207;-75
2023/07/07 08:55:25;;;;;;;1.30;0.60;;;14.70;99.90;;;;;;4990871;28;20219;-76
2023/07/07 08:58:03;;;;;;;0.95;0.50;;;14.60;99.90;;;;;;4989688;28;20196;-75
2023/07/07 09:00:47;;;;;;;0.50;0.40;;;14.60;99.90;;;;;;4992522;28;20235;-74
2023/07/07 09:03:34;;;;;;;0.70;0.60;;;14.50;99.90;;;;;;4992732;28;20195;-75
2023/07/07 09:06:18;;;;;;;0.73;0.65;;;14.50;99.90;;;;;;4992082;28;20203;-76
2023/07/07 09:08:57;;;;;;;1.27;0.85;;;14.40;99.90;;;;;;4992337;28;20207;-75
2023/07/07 09:11:52;;;;;;;1.30;0.80;;;14.30;99.90;;;;;;4988840;28;20199;-75
2023/07/07 09:14:24;;;;;;;1.00;0.80;;;14.30;99.90;;;;;;4994045;28;20683;-75
2023/07/07 09:16:58;;;;;;;1.42;1.00;;;14.20;99.90;;;;;;4991320;28;20671;-74
2023/07/07 09:19:33;;;;;;;0.88;0.80;;;14.20;99.90;;;;;;4991204;28;20207;-75
2023/07/07 09:22:09;;;;;;;1.23;0.90;;;14.20;99.90;;;;;;4992921;28;20696;-75
2023/07/07 09:24:47;;;;;;;1.00;0.80;;;14.10;99.90;;;;;;4993971;28;20554;-75
2023/07/07 09:27:22;;;;;;;1.23;0.70;;;14.10;99.90;;;;;;4992609;28;20203;-75
2023/07/07 09:29:57;;;;;;;1.17;0.68;;;14.00;99.90;;;;;;4993875;28;20203;-74
2023/07/07 09:32:28;;;;;;;1.42;0.80;;;13.90;99.90;;;;;;4993079;28;20207;-75
2023/07/07 09:35:00;;;;;;;0.65;0.65;;;13.90;99.90;;;;;;4993536;28;20206;-76
2023/07/07 09:37:38;;;;;;;2.25;0.75;;;13.80;99.90;;;;;;4986103;28;20196;-76
2023/07/07 09:40:19;;;;;;;1.02;0.60;;;13.80;99.90;;;;;;4995857;28;20229;-75
2023/07/07 09:43:00;;;;;;;0.80;0.60;;;13.70;99.90;;;;;;4985376;28;20207;-75
2023/07/07 09:45:41;;;;;;;1.08;0.65;;;13.70;99.90;;;;;;4991232;28;20195;-75
2023/07/07 09:48:24;;;;;;;0.77;0.50;;;13.70;99.90;;;;;;4994074;28;20290;-75
2023/07/07 09:51:02;;;;;;;1.33;0.70;;;13.60;99.90;;;;;;4990770;28;20262;-74
2023/07/07 09:53:36;;;;;;;2.17;0.90;;;13.60;99.90;;;;;;4995093;28;20212;-74
2023/07/07 09:56:15;;;;;;;1.10;0.70;;;13.60;99.90;;;;;;4995679;28;20195;-75
2023/07/07 09:58:52;;;;;;;1.20;0.60;;;13.50;99.90;;;;;;4991780;28;20656;-75
2023/07/07 10:01:28;;;;;;;1.00;0.60;;;13.50;99.90;;;;;;4992450;28;20358;-75
2023/07/07 10:04:00;;;;;;;1.10;0.65;;;13.50;99.90;;;;;;4993799;28;20211;-74
2023/07/07 10:06:37;;;;;;;1.20;0.80;;;13.50;99.90;;;;;;4993584;28;20199;-75
2023/07/07 10:09:11;;;;;;;2.50;1.45;;;13.40;99.90;;;;;;4995550;28;20207;-74
2023/07/07 10:11:45;;;;;;;2.45;1.40;;;13.40;99.90;;;;;;4995440;28;20202;-75
2023/07/07 10:14:19;;;;;;;3.10;1.70;;;13.40;99.90;;;;;;4991514;28;20230;-75
2023/07/07 10:16:58;;;;;;;3.50;1.73;;;13.40;99.90;;;;;;4993940;28;20192;-75
2023/07/07 10:19:29;;;;;;;1.85;1.40;;;13.30;99.90;;;;;;4991257;28;20986;-75
2023/07/07 10:22:00;;;;;;;1.80;1.50;;;13.30;99.90;;;;;;4987991;28;20206;-75
2023/07/07 10:24:32;;;;;;;3.70;1.52;;;13.30;99.90;;;;;;4981978;28;20199;-75
2023/07/07 10:27:05;;;;;;;3.35;1.75;;;13.20;99.90;;;;;;4995290;28;20199;-75
2023/07/07 10:29:39;;;;;;;2.67;1.88;;;13.20;99.90;;;;;;4992701;28;20258;-75
2023/07/07 10:32:14;;;;;;;3.10;1.88;;;13.20;99.90;;;;;;4991063;28;20254;-75
2023/07/07 10:34:48;;;;;;;3.60;2.13;;;13.20;99.90;;;;;;4994803;28;20214;-74
2023/07/07 10:37:22;;;;;;;3.72;2.17;;;13.10;99.90;;;;;;4993743;28;20195;-75
2023/07/07 10:39:57;;;;;;;3.03;2.13;;;13.10;99.90;;;;;;4992205;28;20203;-75
2023/07/07 10:42:32;;;;;;;2.58;2.10;;;13.10;99.90;;;;;;4991422;28;20199;-75
2023/07/07 10:45:04;;;;;;;3.63;2.10;;;13.00;99.90;;;;;;4993563;28;20218;-75
2023/07/07 10:47:37;;;;;;;3.28;2.03;;;13.00;99.90;;;;;;4993070;28;20668;-76
2023/07/07 10:50:14;;;;;;;2.83;1.98;;;13.00;99.90;;;;;;4994565;28;20200;-76
2023/07/07 10:53:21;;;;;;;3.40;1.88;;;12.90;99.90;;;;;;4987950;28;20203;-76
2023/07/07 10:56:10;;;;;;;3.08;1.90;;;12.90;99.90;;;;;;4934400;29;20225;-75
2023/07/07 10:59:09;;;;;;;2.80;1.90;;;12.80;99.90;;;;;;4980423;28;20196;-76
2023/07/07 11:01:51;;;;;;;3.03;1.73;;;12.70;99.90;;;;;;4986425;28;20603;-76
2023/07/07 11:04:45;;;;;;;2.78;2.00;;;12.50;99.90;;;;;;4993256;28;20196;-76
2023/07/07 11:07:25;;;;;;;2.67;1.90;;;12.40;99.90;;;;;;4992861;28;20200;-75
2023/07/07 11:10:10;;;;;;;3.42;1.92;;;12.40;99.90;;;;;;4983774;28;20195;-75
2023/07/07 11:12:50;;;;;;;3.53;2.05;;;12.30;99.90;;;;;;4987845;28;20270;-75
2023/07/07 11:15:29;;;;;;;3.17;2.28;;;12.30;99.90;;;;;;4989864;28;20203;-74
2023/07/07 11:18:09;;;;;;;3.03;2.15;;;12.30;99.90;;;;;;4989684;28;20203;-75
2023/07/07 11:21:03;;;;;;;2.25;1.77;;;12.30;99.90;;;;;;4989763;28;20199;-74
2023/07/07 11:23:58;;;;;;;2.60;1.50;;;12.30;99.90;;;;;;4984830;28;20204;-75
2023/07/07 11:26:37;;;;;;;2.97;1.70;;;12.30;99.90;;;;;;4975866;28;20204;-75
2023/07/07 11:29:17;;;;;;;2.00;1.70;;;12.30;99.90;;;;;;4984314;28;20310;-76
2023/07/07 11:32:01;;;;;;;5.22;1.58;;;12.30;99.90;;;;;;4994552;28;20203;-76
2023/07/07 11:34:54;;;;;;;2.80;1.60;;;12.30;99.90;;;;;;4994583;28;20221;-76
2023/07/07 11:37:38;;;;;;;2.55;1.63;;;12.30;99.90;;;;;;4994749;28;20207;-76
2023/07/07 11:40:29;;;;;;;1.90;1.50;;;12.20;99.90;;;;;;4993935;28;20201;-77
2023/07/07 11:43:22;;;;;;;3.60;1.90;;;12.20;99.90;;;;;;4975272;28;20204;-74
2023/07/07 11:46:18;;;;;;;2.55;1.80;;;12.20;99.90;;;;;;4974923;28;20196;-73
2023/07/07 11:49:02;;;;;;;2.90;1.80;;;12.20;99.90;;;;;;4986712;28;20203;-74
2023/07/07 11:51:48;;;;;;;2.83;1.80;;;12.20;99.90;;;;;;4994582;28;20195;-74
2023/07/07 11:54:41;;;;;;;2.67;1.60;;;12.20;99.90;;;;;;4994279;28;20242;-74
2023/07/07 11:57:36;;;;;;;2.65;1.80;;;12.20;99.90;;;;;;4994592;28;20192;-73
2023/07/07 12:00:25;;;;;;;3.03;1.70;;;12.20;99.90;;;;;;4994146;28;20317;-73
2023/07/07 12:03:00;;;;;;;2.15;1.60;;;12.10;99.90;;;;;;4994405;28;20199;-73
2023/07/07 12:05:37;;;;;;;3.00;1.80;;;12.10;99.90;;;;;;4994134;28;20203;-74
2023/07/07 12:08:15;;;;;;;3.85;1.80;;;12.00;99.90;;;;;;4994315;28;20283;-73
2023/07/07 12:10:50;;;;;;;3.53;2.00;;;11.90;99.90;;;;;;4994304;28;20547;-74
2023/07/07 12:13:26;;;;;;;2.25;1.75;;;11.80;99.90;;;;;;4994984;28;22099;-76
2023/07/07 12:16:05;;;;;;;3.08;1.98;;;11.80;99.90;;;;;;4994220;28;20541;-75
2023/07/07 12:18:39;;;;;;;2.70;1.83;;;11.80;99.90;;;;;;4994404;28;20192;-76
2023/07/07 12:21:16;;;;;;;3.47;1.80;;;11.70;99.90;;;;;;4994177;28;20249;-76
2023/07/07 12:24:02;;;;;;;3.20;2.08;;;11.70;99.90;;;;;;4993781;28;20207;-76
2023/07/07 12:26:36;;;;;;;2.53;1.90;;;11.70;99.90;;;;;;4994060;28;20198;-76
2023/07/07 12:29:08;;;;;;;3.28;2.47;;;11.60;99.90;;;;;;4993902;28;20188;-74
2023/07/07 12:31:43;;;;;;;2.95;2.22;;;11.60;99.90;;;;;;4993987;28;20191;-74
2023/07/07 12:34:36;;;;;;;3.20;1.90;;;11.50;99.90;;;;;;4993839;28;20230;-73
2023/07/07 12:37:15;;;;;;;3.95;2.17;;;11.50;99.90;;;;;;4994290;28;20200;-73
2023/07/07 12:39:57;;;;;;;3.10;2.20;;;11.50;99.90;;;;;;4993843;28;20207;-74
2023/07/07 12:42:30;;;;;;;3.08;2.05;;;11.40;99.90;;;;;;4993922;28;20199;-73
2023/07/07 12:45:10;;;;;;;3.83;2.30;;;11.20;99.90;;;;;;4993645;28;20207;-75
2023/07/07 12:47:45;;;;;;;3.47;2.50;;;11.10;99.90;;;;;;4994251;28;20206;-76
2023/07/07 12:50:29;;;;;;;5.03;2.60;;;10.90;99.90;;;;;;4996420;28;20199;-74
2023/07/07 12:53:07;;;;;;;5.75;3.08;;;10.70;99.90;;;;;;4995242;28;20206;-75
2023/07/07 12:55:41;;;;;;;4.85;3.22;;;10.60;99.90;;;;;;4995959;28;20260;-75
2023/07/07 12:58:45;;;;;;;3.97;2.80;;;10.50;99.90;;;;;;4996722;28;20203;-75
2023/07/07 13:01:40;;;;;;;4.28;2.90;;;10.40;99.90;;;;;;4986811;28;21557;-75
2023/07/07 13:04:21;;;;;;;4.60;2.78;;;10.40;99.90;;;;;;4990348;28;20246;-76
2023/07/07 13:07:10;;;;;;;5.38;3.05;;;10.40;99.90;;;;;;4996483;28;20567;-75
2023/07/07 13:09:52;;;;;;;4.97;2.67;;;10.40;99.90;;;;;;4984182;28;20199;-75
2023/07/07 13:12:45;;;;;;;3.88;2.53;;;10.40;99.90;;;;;;4996550;28;20195;-76
2023/07/07 13:15:22;;;;;;;5.70;2.85;;;10.40;99.90;;;;;;4996762;28;20620;-76
2023/07/07 13:17:55;;;;;;;6.88;3.10;;;10.40;99.90;;;;;;4995017;28;20257;-76
2023/07/07 13:20:27;;;;;;;6.22;3.70;;;10.30;99.90;;;;;;4977909;28;20192;-75
2023/07/07 13:23:06;;;;;;;5.43;3.22;;;10.20;99.90;;;;;;4996452;28;20199;-76
2023/07/07 13:25:39;;;;;;;3.85;3.03;;;10.10;99.90;;;;;;4996289;28;20199;-76
2023/07/07 13:28:15;;;;;;;4.45;2.67;;;10.00;99.90;;;;;;4987612;28;20204;-76
2023/07/07 13:30:48;;;;;;;5.10;2.97;;;9.90;99.90;;;;;;4996182;28;20564;-76